Time;durP1;ratioP1;P1;durP2;ratioP2;P2;SDS_P1;SDS_P2;PMS_P1;PMS_P2;Temp;Humidity;BMP_temperature;BMP_pressure;BME280_temperature;BME280_humidity;BME280_pressure;Samples;Min_cycle;Max_cycle;Signal;HPM_P1;HPM_P2
2022/08/12 00:46:29;;;;;;;5.22;2.13;;;;;;;;;;5012463;28;20105;-54
2022/08/12 00:48:18;;;;;;;5.55;1.75;;;;;;;;;;5015014;28;20056;-55
2022/08/12 00:50:50;;;;;;;5.30;1.42;;;;;;;;;;5015949;28;20054;-55
2022/08/12 00:53:26;;;;;;;3.13;1.30;;;;;;;;;;5015775;28;20054;-51
2022/08/12 00:56:03;;;;;;;4.13;1.50;;;;;;;;;;5015849;28;20132;-53
2022/08/12 00:58:33;;;;;;;3.15;1.80;;;;;;;;;;5015918;28;20060;-54
2022/08/12 01:01:08;;;;;;;4.22;1.95;;;;;;;;;;5015653;28;20045;-54
2022/08/12 01:11:55;;;;;;;4.05;1.27;;;;;;;;;;5015438;28;20056;-54
2022/08/12 01:14:23;;;;;;;3.65;1.45;;;;;;;;;;5014975;28;20061;-54
2022/08/12 01:16:58;;;;;;;2.35;1.33;;;;;;;;;;5015560;28;20089;-54
2022/08/12 01:19:27;;;;;;;2.85;1.60;;;;;;;;;;5015534;28;20049;-55
2022/08/12 01:22:13;;;;;;;3.72;1.45;;;;;;;;;;5014750;28;20107;-55
2022/08/12 01:24:56;;;;;;;2.70;1.65;;;;;;;;;;5015564;28;20061;-53
2022/08/12 01:27:27;;;;;;;2.85;1.30;;;;;;;;;;5014984;28;20085;-52
2022/08/12 01:30:05;;;;;;;2.72;1.80;;;;;;;;;;5015196;28;20049;-54
2022/08/12 01:32:36;;;;;;;2.72;1.40;;;;;;;;;;5014774;28;20070;-54
2022/08/12 01:35:06;;;;;;;6.20;1.95;;;;;;;;;;5015146;28;20057;-53
2022/08/12 01:37:43;;;;;;;3.47;1.52;;;;;;;;;;5015321;28;20077;-54
2022/08/12 01:40:29;;;;;;;3.15;1.38;;;;;;;;;;5015022;28;20038;-54
2022/08/12 01:42:58;;;;;;;2.83;1.60;;;;;;;;;;5014819;28;20050;-54
2022/08/12 01:45:28;;;;;;;2.72;1.55;;;;;;;;;;5011285;28;20046;-51
2022/08/12 01:48:08;;;;;;;4.32;1.75;;;;;;;;;;5014903;28;20216;-55
2022/08/12 01:50:49;;;;;;;4.97;2.58;;;;;;;;;;5014768;28;20058;-54
2022/08/12 01:53:19;;;;;;;2.75;1.60;;;;;;;;;;5014712;28;20050;-54
2022/08/12 01:55:57;;;;;;;5.75;2.45;;;;;;;;;;5014074;28;20054;-55
2022/08/12 01:58:28;;;;;;;3.28;1.67;;;;;;;;;;5014872;28;20058;-56
2022/08/12 02:00:57;;;;;;;4.45;2.15;;;;;;;;;;5014685;28;20145;-55
2022/08/12 02:12:19;;;;;;;4.88;2.20;;;;;;;;;;4994855;28;20050;-55
2022/08/12 02:14:53;;;;;;;3.55;1.90;;;;;;;;;;4994714;28;20355;-55
2022/08/12 02:17:38;;;;;;;3.38;1.70;;;;;;;;;;4994472;28;20145;-55
2022/08/12 02:20:20;;;;;;;3.45;1.85;;;;;;;;;;4994374;28;20050;-56
2022/08/12 02:22:50;;;;;;;4.70;2.40;;;;;;;;;;5002585;28;20080;-56
2022/08/12 02:25:24;;;;;;;8.15;2.20;;;;;;;;;;5014070;28;20058;-55
2022/08/12 02:27:55;;;;;;;4.95;1.80;;;;;;;;;;5013852;28;20050;-56
2022/08/12 02:30:22;;;;;;;3.58;1.73;;;;;;;;;;4994279;28;20450;-56
2022/08/12 02:32:52;;;;;;;4.53;2.13;;;;;;;;;;4994691;28;20061;-56
2022/08/12 02:35:24;;;;;;;3.35;1.67;;;;;;;;;;4994631;28;20050;-55
2022/08/12 02:37:52;;;;;;;4.85;1.92;;;;;;;;;;5011781;28;20138;-55
2022/08/12 02:40:33;;;;;;;2.55;1.52;;;;;;;;;;5013938;28;20046;-55
2022/08/12 02:43:10;;;;;;;5.50;2.03;;;;;;;;;;5014110;28;20054;-56
2022/08/12 02:45:41;;;;;;;7.90;2.13;;;;;;;;;;5010319;28;20132;-56
2022/08/12 02:48:10;;;;;;;4.82;1.98;;;;;;;;;;5013946;28;20057;-56
2022/08/12 02:50:46;;;;;;;6.50;2.10;;;;;;;;;;5013187;28;20049;-56
2022/08/12 02:53:14;;;;;;;5.63;2.00;;;;;;;;;;5013838;28;20064;-55
2022/08/12 02:55:44;;;;;;;2.72;1.70;;;;;;;;;;5013675;28;20056;-52
2022/08/12 02:58:14;;;;;;;4.97;1.90;;;;;;;;;;5013583;28;20141;-53
2022/08/12 03:00:45;;;;;;;3.05;1.90;;;;;;;;;;5013569;28;20046;-56
2022/08/12 03:03:16;;;;;;;4.18;2.22;;;;;;;;;;5013436;28;20078;-56
2022/08/12 03:05:50;;;;;;;4.28;2.33;;;;;;;;;;5012567;28;20085;-55
2022/08/12 03:08:20;;;;;;;4.82;2.30;;;;;;;;;;5013685;28;20125;-56
2022/08/12 03:10:57;;;;;;;4.70;2.30;;;;;;;;;;5013918;28;20045;-56
2022/08/12 03:13:29;;;;;;;5.32;2.63;;;;;;;;;;5013641;28;20050;-55
2022/08/12 03:16:00;;;;;;;4.40;2.30;;;;;;;;;;5013150;28;20370;-55
2022/08/12 03:18:37;;;;;;;3.83;1.85;;;;;;;;;;5013230;28;20065;-55
2022/08/12 03:21:07;;;;;;;4.85;1.90;;;;;;;;;;5013467;28;20058;-56
2022/08/12 03:23:36;;;;;;;4.45;1.77;;;;;;;;;;5013446;28;20057;-55
2022/08/12 03:26:05;;;;;;;4.85;1.85;;;;;;;;;;5013291;28;20061;-53
2022/08/12 03:28:57;;;;;;;3.53;2.03;;;;;;;;;;5013233;28;20136;-56
2022/08/12 03:31:28;;;;;;;4.25;2.10;;;;;;;;;;5016991;28;20053;-53
2022/08/12 03:33:56;;;;;;;4.90;1.90;;;;;;;;;;5017221;28;20058;-55
2022/08/12 03:36:24;;;;;;;4.13;2.75;;;;;;;;;;5016783;28;20061;-56
2022/08/12 03:39:18;;;;;;;3.70;1.60;;;;;;;;;;5016764;28;20049;-56
2022/08/12 03:41:48;;;;;;;4.03;2.03;;;;;;;;;;5016836;28;20064;-55
2022/08/12 04:01:01;;;;;;;3.33;2.17;;;;;;;;;;5016591;28;19940;-54
2022/08/12 04:06:17;;;;;;;4.72;2.10;;;;;;;;;;5016748;28;20481;-52
2022/08/12 04:08:46;;;;;;;4.15;2.15;;;;;;;;;;5016787;28;20053;-53
2022/08/12 04:14:05;;;;;;;18.13;3.47;;;;;;;;;;5016582;28;20056;-55
2022/08/12 04:16:41;;;;;;;13.35;2.60;;;;;;;;;;5014583;28;20060;-55
2022/08/12 04:19:12;;;;;;;3.83;2.35;;;;;;;;;;5015890;28;20096;-52
2022/08/12 04:21:42;;;;;;;6.50;2.60;;;;;;;;;;5016520;28;20152;-53
2022/08/12 04:24:10;;;;;;;5.30;2.78;;;;;;;;;;5016012;28;20833;-54
2022/08/12 04:26:39;;;;;;;5.45;2.67;;;;;;;;;;5016154;28;20069;-52
2022/08/12 04:29:10;;;;;;;6.75;2.38;;;;;;;;;;5016221;28;20045;-56
2022/08/12 04:31:40;;;;;;;5.88;2.53;;;;;;;;;;5016029;28;20093;-56
2022/08/12 04:34:08;;;;;;;18.33;3.65;;;;;;;;;;5016193;28;20058;-54
2022/08/12 04:36:37;;;;;;;6.00;3.25;;;;;;;;;;5015626;28;20054;-56
2022/08/12 04:39:07;;;;;;;37.35;4.90;;;;;;;;;;5015308;28;20123;-56
2022/08/12 04:41:37;;;;;;;13.10;3.60;;;;;;;;;;5015721;28;20058;-56
2022/08/12 04:44:05;;;;;;;13.10;3.45;;;;;;;;;;5016210;28;20068;-56
2022/08/12 04:46:32;;;;;;;6.38;3.20;;;;;;;;;;5012491;28;20049;-56
2022/08/12 04:49:11;;;;;;;8.25;2.90;;;;;;;;;;5016176;28;20057;-56
2022/08/12 04:51:39;;;;;;;5.15;2.78;;;;;;;;;;5016075;28;20089;-55
2022/08/12 04:54:08;;;;;;;7.65;3.10;;;;;;;;;;5015144;28;20136;-55
2022/08/12 04:56:36;;;;;;;5.90;3.13;;;;;;;;;;5015995;28;20152;-56
2022/08/12 04:59:06;;;;;;;5.65;2.70;;;;;;;;;;5014962;28;20069;-56
2022/08/12 05:01:32;;;;;;;83.60;7.45;;;;;;;;;;5015745;28;20061;-55
2022/08/12 05:04:09;;;;;;;21.88;4.10;;;;;;;;;;5014617;28;20447;-55
2022/08/12 05:06:39;;;;;;;11.00;3.65;;;;;;;;;;5015926;28;20058;-56
2022/08/12 05:09:05;;;;;;;6.25;2.60;;;;;;;;;;5015471;28;20046;-55
2022/08/12 05:11:35;;;;;;;5.25;2.85;;;;;;;;;;5015804;28;20053;-55
2022/08/12 05:14:04;;;;;;;10.98;2.70;;;;;;;;;;5015651;28;20054;-55
2022/08/12 05:16:34;;;;;;;8.77;2.60;;;;;;;;;;5015335;28;20049;-54
2022/08/12 05:19:11;;;;;;;4.35;2.50;;;;;;;;;;5015303;28;20470;-55
2022/08/12 05:21:39;;;;;;;11.90;3.15;;;;;;;;;;5015502;28;20089;-54
2022/08/12 05:24:07;;;;;;;5.15;2.63;;;;;;;;;;5015232;28;20053;-53
2022/08/12 05:26:37;;;;;;;4.18;2.30;;;;;;;;;;5014836;28;20430;-55
2022/08/12 05:29:15;;;;;;;8.52;2.95;;;;;;;;;;5008774;28;20390;-54
2022/08/12 05:31:44;;;;;;;4.22;2.17;;;;;;;;;;5005350;28;20446;-53
2022/08/12 05:34:14;;;;;;;2.83;1.70;;;;;;;;;;4995631;28;20141;-52
2022/08/12 05:36:46;;;;;;;4.50;1.80;;;;;;;;;;4995635;28;20062;-54
2022/08/12 05:39:12;;;;;;;2.50;1.48;;;;;;;;;;4995267;28;20085;-54
2022/08/12 05:41:43;;;;;;;1.70;1.10;;;;;;;;;;4995530;28;20049;-54
2022/08/12 05:44:18;;;;;;;3.03;1.35;;;;;;;;;;4997799;28;20046;-54
2022/08/12 05:46:47;;;;;;;2.50;1.30;;;;;;;;;;5013529;28;20120;-54
2022/08/12 05:49:28;;;;;;;2.50;1.23;;;;;;;;;;5014872;28;20049;-55
2022/08/12 05:51:58;;;;;;;3.05;1.42;;;;;;;;;;5014598;28;20081;-53
2022/08/12 05:54:26;;;;;;;3.20;1.55;;;;;;;;;;5014037;28;20137;-55
2022/08/12 05:56:56;;;;;;;2.38;1.60;;;;;;;;;;5015061;28;20052;-55
2022/08/12 05:59:26;;;;;;;6.32;1.83;;;;;;;;;;5014279;28;20489;-55
2022/08/12 06:02:08;;;;;;;3.63;1.67;;;;;;;;;;5013899;28;20488;-53
2022/08/12 06:04:41;;;;;;;3.40;1.85;;;;;;;;;;5014215;28;20733;-51
2022/08/12 06:07:13;;;;;;;6.20;1.80;;;;;;;;;;5014637;28;20053;-53
2022/08/12 06:09:41;;;;;;;3.25;2.22;;;;;;;;;;5014393;28;20127;-55
2022/08/12 06:12:09;;;;;;;3.33;1.50;;;;;;;;;;5014164;28;20072;-55
2022/08/12 06:14:36;;;;;;;2.90;1.45;;;;;;;;;;5014259;28;20064;-55
2022/08/12 06:17:07;;;;;;;3.80;1.50;;;;;;;;;;5014050;28;20425;-55
2022/08/12 06:19:36;;;;;;;2.47;1.25;;;;;;;;;;5014140;28;20057;-54
2022/08/12 06:22:04;;;;;;;2.83;1.50;;;;;;;;;;5013500;28;20057;-52
2022/08/12 06:24:33;;;;;;;8.48;1.60;;;;;;;;;;5013883;28;20058;-54
2022/08/12 06:27:02;;;;;;;7.47;1.63;;;;;;;;;;5013610;28;20072;-55
2022/08/12 06:29:33;;;;;;;5.80;1.77;;;;;;;;;;5007434;28;20497;-54
2022/08/12 06:32:01;;;;;;;2.20;1.20;;;;;;;;;;5013703;28;20136;-52
2022/08/12 06:37:17;;;;;;;6.82;1.55;;;;;;;;;;5014092;28;20054;-54
2022/08/12 06:39:47;;;;;;;5.28;1.63;;;;;;;;;;5013974;28;20054;-55
2022/08/12 06:45:03;;;;;;;6.50;1.80;;;;;;;;;;5013656;28;20383;-54
2022/08/12 06:47:35;;;;;;;2.85;1.50;;;;;;;;;;5014059;28;20058;-55
2022/08/12 06:50:06;;;;;;;2.10;1.20;;;;;;;;;;5013641;28;20079;-53
2022/08/12 06:52:47;;;;;;;4.30;1.40;;;;;;;;;;5012992;28;20394;-52
2022/08/12 06:55:19;;;;;;;4.20;1.52;;;;;;;;;;5013756;28;20096;-53
2022/08/12 06:57:55;;;;;;;10.95;1.90;;;;;;;;;;5013529;28;20053;-55
2022/08/12 07:00:26;;;;;;;3.72;1.42;;;;;;;;;;5013547;28;20060;-55
2022/08/12 07:02:57;;;;;;;13.80;2.30;;;;;;;;;;5013275;28;20054;-53
2022/08/12 07:05:25;;;;;;;8.45;1.80;;;;;;;;;;5013822;28;20092;-55
2022/08/12 07:08:17;;;;;;;8.35;1.80;;;;;;;;;;5012897;28;20129;-55
2022/08/12 07:10:56;;;;;;;2.90;1.30;;;;;;;;;;5013664;28;20128;-55
2022/08/12 07:13:37;;;;;;;4.50;1.23;;;;;;;;;;5013394;28;20116;-55
2022/08/12 07:16:05;;;;;;;6.10;1.25;;;;;;;;;;5013549;28;20141;-56
2022/08/12 07:18:36;;;;;;;3.45;1.27;;;;;;;;;;5012902;28;20065;-55
2022/08/12 07:21:05;;;;;;;5.47;1.40;;;;;;;;;;5012682;28;20546;-55
2022/08/12 07:23:39;;;;;;;3.38;1.17;;;;;;;;;;5011965;28;20386;-55
2022/08/12 07:26:15;;;;;;;3.30;1.30;;;;;;;;;;5004596;28;20066;-55
2022/08/12 07:28:44;;;;;;;11.25;2.00;;;;;;;;;;5006405;28;20115;-54
2022/08/12 07:31:14;;;;;;;3.03;1.02;;;;;;;;;;5013402;28;20137;-54
2022/08/12 07:33:42;;;;;;;2.75;1.02;;;;;;;;;;5013306;28;20060;-56
2022/08/12 07:36:12;;;;;;;2.28;0.80;;;;;;;;;;5013192;28;20058;-52
2022/08/12 07:38:53;;;;;;;46.55;3.63;;;;;;;;;;5013516;28;20058;-51
2022/08/12 07:41:24;;;;;;;3.92;1.20;;;;;;;;;;5012882;28;20347;-51
2022/08/12 07:43:56;;;;;;;1.60;0.75;;;;;;;;;;5013340;28;20069;-52
2022/08/12 07:46:25;;;;;;;2.53;0.60;;;;;;;;;;5013186;28;20053;-51
2022/08/12 07:48:55;;;;;;;2.78;1.00;;;;;;;;;;5012892;28;20119;-51
2022/08/12 07:51:24;;;;;;;8.23;1.20;;;;;;;;;;5013136;28;20045;-52
2022/08/12 07:54:01;;;;;;;3.95;0.88;;;;;;;;;;5013015;28;20049;-52
2022/08/12 07:56:29;;;;;;;1.85;0.88;;;;;;;;;;5012812;28;20064;-52
2022/08/12 07:59:01;;;;;;;7.00;1.30;;;;;;;;;;5012434;28;20057;-53
2022/08/12 08:01:31;;;;;;;3.38;1.02;;;;;;;;;;5012563;28;20530;-56
2022/08/12 08:06:46;;;;;;;4.75;1.10;;;;;;;;;;5012381;28;20053;-52
2022/08/12 08:09:29;;;;;;;4.95;0.95;;;;;;;;;;5006751;28;20054;-55
2022/08/12 08:14:43;;;;;;;1.85;0.75;;;;;;;;;;5012076;28;20048;-55
2022/08/12 08:17:16;;;;;;;2.85;0.80;;;;;;;;;;5008759;28;20532;-53
2022/08/12 08:19:43;;;;;;;3.45;0.80;;;;;;;;;;5004021;28;20128;-55
2022/08/12 08:22:14;;;;;;;0.93;0.60;;;;;;;;;;5005742;28;20045;-56
2022/08/12 08:24:57;;;;;;;2.15;0.70;;;;;;;;;;5015918;28;20050;-55
2022/08/12 08:27:27;;;;;;;1.58;0.70;;;;;;;;;;5013497;28;20054;-55
2022/08/12 08:29:55;;;;;;;10.18;1.50;;;;;;;;;;5013023;28;20077;-56
2022/08/12 08:32:33;;;;;;;1.65;0.60;;;;;;;;;;5016585;28;20096;-54
2022/08/12 08:34:59;;;;;;;4.43;1.10;;;;;;;;;;5004475;28;20073;-55
2022/08/12 08:37:28;;;;;;;0.73;0.60;;;;;;;;;;5015260;28;20077;-54
2022/08/12 08:42:48;;;;;;;1.38;0.70;;;;;;;;;;5005410;28;20053;-56
2022/08/12 08:45:19;;;;;;;1.67;0.82;;;;;;;;;;5015320;28;20049;-55
2022/08/12 08:47:48;;;;;;;2.33;0.82;;;;;;;;;;5016563;28;20057;-55
2022/08/12 08:50:16;;;;;;;3.47;1.42;;;;;;;;;;5003378;28;20124;-56
2022/08/12 08:52:44;;;;;;;4.15;0.85;;;;;;;;;;5014711;28;20056;-56
2022/08/12 08:55:15;;;;;;;1.33;0.70;;;;;;;;;;5016433;28;20050;-55
2022/08/12 08:57:46;;;;;;;2.47;0.77;;;;;;;;;;5004200;28;20141;-56
2022/08/12 09:00:17;;;;;;;31.35;3.80;;;;;;;;;;5016170;28;20054;-56
2022/08/12 09:02:43;;;;;;;16.27;2.40;;;;;;;;;;5016221;28;20108;-55
2022/08/12 09:05:13;;;;;;;11.93;1.35;;;;;;;;;;5013395;28;20073;-55
2022/08/12 09:07:56;;;;;;;1.85;0.80;;;;;;;;;;5005581;28;20132;-51
2022/08/12 09:10:32;;;;;;;27.35;3.90;;;;;;;;;;5004126;28;20057;-52
2022/08/12 09:15:47;;;;;;;1.98;0.73;;;;;;;;;;5006475;28;20057;-52
2022/08/12 09:18:17;;;;;;;2.35;1.00;;;;;;;;;;5014604;28;20447;-52
2022/08/12 09:20:49;;;;;;;83.72;6.43;;;;;;;;;;5005028;28;20061;-53
2022/08/12 09:23:17;;;;;;;3.83;0.90;;;;;;;;;;5014498;28;20054;-52
2022/08/12 09:25:48;;;;;;;2.55;1.00;;;;;;;;;;5003246;28;20058;-52
2022/08/12 09:28:19;;;;;;;2.00;1.00;;;;;;;;;;5014328;28;20060;-52
2022/08/12 09:30:52;;;;;;;5.55;0.82;;;;;;;;;;5014693;28;20057;-52
2022/08/12 09:33:20;;;;;;;1.63;0.70;;;;;;;;;;5003483;28;20363;-55
2022/08/12 09:35:48;;;;;;;1.90;0.90;;;;;;;;;;5002367;28;20050;-55
2022/08/12 09:38:18;;;;;;;2.03;0.80;;;;;;;;;;5015071;28;20056;-55
2022/08/12 09:40:47;;;;;;;2.90;1.00;;;;;;;;;;5014946;28;20112;-55
2022/08/12 09:46:03;;;;;;;53.92;6.05;;;;;;;;;;5009970;28;20044;-54
2022/08/12 09:48:32;;;;;;;5.80;1.20;;;;;;;;;;5010078;28;20137;-56
2022/08/12 09:51:03;;;;;;;1.80;0.85;;;;;;;;;;5013457;28;20085;-56
2022/08/12 09:53:48;;;;;;;1.37;0.80;;;;;;;;;;5010730;28;20045;-57
2022/08/12 09:56:22;;;;;;;4.28;1.20;;;;;;;;;;5001113;28;20073;-55
2022/08/12 09:58:50;;;;;;;2.78;1.10;;;;;;;;;;5013977;28;20053;-56
2022/08/12 10:01:18;;;;;;;8.75;1.55;;;;;;;;;;5013383;28;20053;-53
2022/08/12 10:03:47;;;;;;;9.88;1.13;;;;;;;;;;5013535;28;20062;-56
2022/08/12 10:06:14;;;;;;;15.32;2.10;;;;;;;;;;5013033;28;20049;-55
2022/08/12 10:08:43;;;;;;;4.43;1.00;;;;;;;;;;5006156;28;20466;-54
2022/08/12 10:13:58;;;;;;;2.75;0.85;;;;;;;;;;5013937;28;20107;-53
2022/08/12 10:16:27;;;;;;;4.10;1.00;;;;;;;;;;5014461;28;20046;-53
2022/08/12 10:18:56;;;;;;;3.38;1.08;;;;;;;;;;5013989;28;20056;-54
2022/08/12 10:21:24;;;;;;;1.55;1.23;;;;;;;;;;5014118;28;20050;-52
2022/08/12 10:23:56;;;;;;;4.57;1.33;;;;;;;;;;5010932;28;20050;-52
2022/08/12 10:31:56;;;;;;;1.50;0.93;;;;;;;;;;5013657;28;19920;-55
2022/08/12 10:34:32;;;;;;;1.58;0.80;;;;;;;;;;5013175;28;20061;-56
2022/08/12 10:37:03;;;;;;;4.78;1.45;;;;;;;;;;5013808;28;20069;-57
2022/08/12 10:39:35;;;;;;;3.38;0.98;;;;;;;;;;5013954;28;20057;-57
2022/08/12 10:44:50;;;;;;;8.00;1.50;;;;;;;;;;5013661;28;20505;-56
2022/08/12 10:47:31;;;;;;;3.13;0.80;;;;;;;;;;5013161;28;20137;-55
2022/08/12 10:49:58;;;;;;;16.63;2.20;;;;;;;;;;5013866;28;20057;-57
2022/08/12 10:52:25;;;;;;;2.38;1.00;;;;;;;;;;5013733;28;20053;-56
2022/08/12 10:54:55;;;;;;;4.60;0.95;;;;;;;;;;5005763;28;20078;-57
2022/08/12 10:57:25;;;;;;;1.33;0.80;;;;;;;;;;4999315;28;20050;-56
2022/08/12 10:59:55;;;;;;;2.58;1.00;;;;;;;;;;5009910;28;20053;-57
2022/08/12 11:02:27;;;;;;;1.55;0.90;;;;;;;;;;5007777;28;20132;-56
2022/08/12 11:04:56;;;;;;;5.05;1.00;;;;;;;;;;5012343;28;20474;-55
2022/08/12 11:07:27;;;;;;;5.43;1.13;;;;;;;;;;5013398;28;20081;-57
2022/08/12 11:09:57;;;;;;;4.68;1.05;;;;;;;;;;5013398;28;20057;-55
2022/08/12 11:12:25;;;;;;;3.55;0.90;;;;;;;;;;5013206;28;20046;-53
2022/08/12 11:14:58;;;;;;;2.40;0.90;;;;;;;;;;5013293;28;20054;-56
2022/08/12 11:17:28;;;;;;;2.85;1.20;;;;;;;;;;5012266;28;20057;-55
2022/08/12 11:19:58;;;;;;;4.90;1.10;;;;;;;;;;5011895;28;20054;-56
2022/08/12 11:22:24;;;;;;;2.50;1.17;;;;;;;;;;5011455;28;20042;-53
2022/08/12 11:24:52;;;;;;;3.03;1.20;;;;;;;;;;5011745;28;20081;-53
2022/08/12 11:27:18;;;;;;;2.90;1.10;;;;;;;;;;5010378;28;20066;-53
2022/08/12 11:29:46;;;;;;;2.88;1.00;;;;;;;;;;5007653;28;20087;-56
2022/08/12 11:32:17;;;;;;;1.48;0.93;;;;;;;;;;5012137;28;20053;-56
2022/08/12 11:35:00;;;;;;;1.60;0.85;;;;;;;;;;5012615;28;20049;-57
2022/08/12 11:37:32;;;;;;;9.55;1.75;;;;;;;;;;4993970;28;20050;-56
2022/08/12 11:40:00;;;;;;;12.93;1.70;;;;;;;;;;5001478;28;20068;-56
2022/08/12 11:42:28;;;;;;;170.40;16.10;;;;;;;;;;5002480;28;20046;-56
2022/08/12 11:44:56;;;;;;;5.20;1.48;;;;;;;;;;5008323;28;20073;-53
2022/08/12 11:47:26;;;;;;;4.03;1.20;;;;;;;;;;5009888;28;20045;-54
2022/08/12 11:49:59;;;;;;;21.35;2.25;;;;;;;;;;5013216;28;20718;-54
2022/08/12 11:52:25;;;;;;;5.90;1.50;;;;;;;;;;5013648;28;20076;-52
2022/08/12 11:54:55;;;;;;;3.20;0.90;;;;;;;;;;5017053;28;20054;-53
2022/08/12 11:57:25;;;;;;;2.53;0.95;;;;;;;;;;5004722;28;20442;-57
2022/08/12 11:59:55;;;;;;;4.03;0.90;;;;;;;;;;5015158;28;20505;-54
2022/08/12 12:02:23;;;;;;;1.98;1.02;;;;;;;;;;5016688;28;20042;-53
2022/08/12 12:04:52;;;;;;;1.25;0.80;;;;;;;;;;5016924;28;20060;-54
2022/08/12 12:07:30;;;;;;;2.08;1.13;;;;;;;;;;5016864;28;20093;-57
2022/08/12 12:10:00;;;;;;;5.18;1.08;;;;;;;;;;5016762;28;20057;-56
2022/08/12 12:12:30;;;;;;;83.18;9.80;;;;;;;;;;5016615;28;20169;-55
2022/08/12 12:14:57;;;;;;;3.03;1.10;;;;;;;;;;5016609;28;20081;-53
2022/08/12 12:17:27;;;;;;;3.33;0.95;;;;;;;;;;5016210;28;20395;-57
2022/08/12 12:19:58;;;;;;;3.85;1.45;;;;;;;;;;5016597;28;20054;-52
2022/08/12 12:22:33;;;;;;;2.15;1.00;;;;;;;;;;5016437;28;20042;-55
2022/08/12 12:24:59;;;;;;;2.47;1.50;;;;;;;;;;5016438;28;20390;-52
2022/08/12 12:27:29;;;;;;;4.47;1.20;;;;;;;;;;5016033;28;20061;-54
2022/08/12 12:29:59;;;;;;;2.35;1.00;;;;;;;;;;5015739;28;20053;-55
2022/08/12 12:32:27;;;;;;;3.13;0.82;;;;;;;;;;5016202;28;20478;-56
2022/08/12 12:34:55;;;;;;;7.32;1.40;;;;;;;;;;5001646;28;20360;-55
2022/08/12 12:37:29;;;;;;;4.82;1.40;;;;;;;;;;4999508;28;20065;-52
2022/08/12 12:40:02;;;;;;;1.90;0.80;;;;;;;;;;5002371;28;20521;-52
2022/08/12 12:42:32;;;;;;;2.40;1.10;;;;;;;;;;5015411;28;20136;-56
2022/08/12 12:44:59;;;;;;;2.42;1.58;;;;;;;;;;5016057;28;20093;-56
2022/08/12 12:47:25;;;;;;;2.05;0.90;;;;;;;;;;5016215;28;20116;-56
2022/08/12 12:49:51;;;;;;;10.50;1.60;;;;;;;;;;5015743;28;20069;-56
2022/08/12 12:52:20;;;;;;;6.65;1.10;;;;;;;;;;5012416;28;20378;-55
2022/08/12 12:54:51;;;;;;;2.28;1.10;;;;;;;;;;5014726;28;20433;-55
2022/08/12 12:57:37;;;;;;;4.75;0.98;;;;;;;;;;5015981;28;20058;-54
2022/08/12 13:00:18;;;;;;;5.55;0.90;;;;;;;;;;4998348;28;20051;-57
2022/08/12 13:02:54;;;;;;;1.48;0.90;;;;;;;;;;5007304;28;20524;-56
2022/08/12 13:05:25;;;;;;;2.83;1.00;;;;;;;;;;5015412;28;20054;-56
2022/08/12 13:07:54;;;;;;;3.85;1.10;;;;;;;;;;5015199;28;20057;-56
2022/08/12 13:10:20;;;;;;;1.40;0.90;;;;;;;;;;5015643;28;20152;-56
2022/08/12 13:12:55;;;;;;;3.75;0.90;;;;;;;;;;5015650;28;20060;-56
2022/08/12 13:15:22;;;;;;;5.13;1.25;;;;;;;;;;5015551;28;20472;-57
2022/08/12 13:17:55;;;;;;;5.43;0.93;;;;;;;;;;5015348;28;20049;-56
2022/08/12 13:20:25;;;;;;;2.20;0.90;;;;;;;;;;5015586;28;20050;-56
2022/08/12 13:22:56;;;;;;;3.53;0.90;;;;;;;;;;5015236;28;20049;-57
2022/08/12 13:25:27;;;;;;;12.55;1.73;;;;;;;;;;5014542;28;20045;-57
2022/08/12 13:27:57;;;;;;;4.60;1.10;;;;;;;;;;5014490;28;20062;-56
2022/08/12 13:30:24;;;;;;;3.30;0.80;;;;;;;;;;5015445;28;20140;-56
2022/08/12 13:32:56;;;;;;;2.67;0.90;;;;;;;;;;5014851;28;20133;-57
2022/08/12 13:35:28;;;;;;;1.77;1.10;;;;;;;;;;5015294;28;20057;-56
2022/08/12 13:37:58;;;;;;;2.45;1.10;;;;;;;;;;4999774;28;20046;-56
2022/08/12 13:40:28;;;;;;;13.02;1.75;;;;;;;;;;4995768;28;20069;-56
2022/08/12 13:43:05;;;;;;;3.97;1.30;;;;;;;;;;4995494;28;20053;-57
2022/08/12 13:45:35;;;;;;;7.60;1.50;;;;;;;;;;5003688;28;20052;-57
2022/08/12 13:48:06;;;;;;;3.58;1.10;;;;;;;;;;5013733;28;20049;-57
2022/08/12 13:50:36;;;;;;;4.22;1.10;;;;;;;;;;5013951;28;20060;-57
2022/08/12 13:53:12;;;;;;;4.70;0.90;;;;;;;;;;5014704;28;20041;-56
2022/08/12 13:55:48;;;;;;;5.88;1.70;;;;;;;;;;5014490;28;20057;-57
2022/08/12 13:58:20;;;;;;;2.63;0.80;;;;;;;;;;5014962;28;20041;-56
2022/08/12 14:00:49;;;;;;;7.65;1.77;;;;;;;;;;5014803;28;20092;-56
2022/08/12 14:03:18;;;;;;;2.35;1.00;;;;;;;;;;5014457;28;20251;-56
2022/08/12 14:05:45;;;;;;;3.70;1.08;;;;;;;;;;5014387;28;20065;-55
2022/08/12 14:08:13;;;;;;;1.90;1.00;;;;;;;;;;5014433;28;20060;-56
2022/08/12 14:10:45;;;;;;;1.42;0.90;;;;;;;;;;5014680;28;20136;-57
2022/08/12 14:13:13;;;;;;;1.63;1.05;;;;;;;;;;5014194;28;20089;-56
2022/08/12 14:15:46;;;;;;;2.75;1.00;;;;;;;;;;5014376;28;20057;-57
2022/08/12 14:18:21;;;;;;;4.30;0.80;;;;;;;;;;5013049;28;20500;-56
2022/08/12 14:20:50;;;;;;;4.43;1.13;;;;;;;;;;5013650;28;20057;-56
2022/08/12 14:23:20;;;;;;;4.20;1.33;;;;;;;;;;5012834;28;20176;-56
2022/08/12 14:25:49;;;;;;;3.20;1.00;;;;;;;;;;5012811;28;20066;-53
2022/08/12 14:28:17;;;;;;;1.60;0.80;;;;;;;;;;5013364;28;20109;-56
2022/08/12 14:30:55;;;;;;;2.92;0.80;;;;;;;;;;5013763;28;20481;-52
2022/08/12 14:33:32;;;;;;;1.77;0.82;;;;;;;;;;5012779;28;20072;-56
2022/08/12 14:36:01;;;;;;;3.20;0.82;;;;;;;;;;5014189;28;20049;-56
2022/08/12 14:38:29;;;;;;;2.92;0.80;;;;;;;;;;5013607;28;20057;-52
2022/08/12 14:40:57;;;;;;;1.67;1.00;;;;;;;;;;5012911;28;20061;-52
2022/08/12 14:43:26;;;;;;;2.28;1.00;;;;;;;;;;5013611;28;20073;-52
2022/08/12 14:45:56;;;;;;;4.15;1.17;;;;;;;;;;5014035;28;20057;-52
2022/08/12 14:48:23;;;;;;;2.28;0.90;;;;;;;;;;5014033;28;20085;-53
2022/08/12 14:50:50;;;;;;;2.90;0.90;;;;;;;;;;5014005;28;20066;-53
2022/08/12 14:53:17;;;;;;;3.80;1.20;;;;;;;;;;5013524;28;20046;-56
2022/08/12 14:55:48;;;;;;;3.28;1.10;;;;;;;;;;5008973;28;20398;-56
2022/08/12 14:58:14;;;;;;;4.65;1.10;;;;;;;;;;5005636;28;20050;-55
2022/08/12 15:03:31;;;;;;;3.08;1.08;;;;;;;;;;4992575;28;20498;-55
2022/08/12 15:06:01;;;;;;;3.40;1.00;;;;;;;;;;4992676;28;20054;-56
2022/08/12 15:08:29;;;;;;;2.03;0.98;;;;;;;;;;4992559;28;20073;-55
2022/08/12 15:11:01;;;;;;;1.83;0.98;;;;;;;;;;4992694;28;20754;-54
2022/08/12 15:13:39;;;;;;;1.75;1.13;;;;;;;;;;4992155;28;20719;-56
2022/08/12 15:16:07;;;;;;;6.53;1.25;;;;;;;;;;4991281;28;20394;-54
2022/08/12 15:18:35;;;;;;;1.63;1.02;;;;;;;;;;5005874;28;20057;-54
2022/08/12 15:21:03;;;;;;;5.20;1.10;;;;;;;;;;5012098;28;20136;-55
2022/08/12 15:23:43;;;;;;;1.83;1.13;;;;;;;;;;5012313;28;20073;-54
2022/08/12 15:26:14;;;;;;;40.95;3.60;;;;;;;;;;5011529;28;20070;-54
2022/08/12 15:28:43;;;;;;;2.35;1.23;;;;;;;;;;5012812;28;20793;-56
2022/08/12 15:31:12;;;;;;;1.88;0.90;;;;;;;;;;5013566;28;20069;-55
2022/08/12 15:33:46;;;;;;;4.32;1.10;;;;;;;;;;5013357;28;20054;-54
2022/08/12 15:36:15;;;;;;;;;;;;;;;;;;5014106;28;20071;-55
2022/08/12 15:38:42;;;;;;;4.80;1.15;;;;;;;;;;5013310;28;19936;-56
2022/08/12 15:41:13;;;;;;;4.07;0.95;;;;;;;;;;5013574;28;20054;-56
2022/08/12 15:43:40;;;;;;;3.08;0.90;;;;;;;;;;5012977;28;20439;-56
2022/08/12 15:46:08;;;;;;;3.05;1.00;;;;;;;;;;5008648;28;20054;-55
2022/08/12 15:48:34;;;;;;;5.07;1.02;;;;;;;;;;5013382;28;20080;-56
2022/08/12 15:51:29;;;;;;;4.15;0.90;;;;;;;;;;5013232;28;20069;-55
2022/08/12 15:54:06;;;;;;;1.63;0.90;;;;;;;;;;4993462;28;20057;-54
2022/08/12 15:56:35;;;;;;;3.35;0.90;;;;;;;;;;4993755;28;20097;-55
2022/08/12 15:59:04;;;;;;;1.88;1.27;;;;;;;;;;5002581;28;20475;-53
2022/08/12 16:01:32;;;;;;;4.05;1.00;;;;;;;;;;5012926;28;20379;-56
2022/08/12 16:04:03;;;;;;;2.45;1.10;;;;;;;;;;5013065;28;20038;-56
2022/08/12 16:06:44;;;;;;;4.32;0.90;;;;;;;;;;5013285;28;20058;-55
2022/08/12 16:09:18;;;;;;;3.75;1.00;;;;;;;;;;5013117;28;20061;-53
2022/08/12 16:11:48;;;;;;;4.80;1.30;;;;;;;;;;5012673;28;20050;-55
2022/08/12 16:14:14;;;;;;;1.45;0.80;;;;;;;;;;5012506;28;20056;-54
2022/08/12 16:16:42;;;;;;;2.72;1.08;;;;;;;;;;5012856;28;20057;-52
2022/08/12 16:19:11;;;;;;;2.65;1.52;;;;;;;;;;5012777;28;20054;-51
2022/08/12 16:21:42;;;;;;;4.20;1.02;;;;;;;;;;5013004;28;20057;-54
2022/08/12 16:24:11;;;;;;;2.20;0.85;;;;;;;;;;5012709;28;20077;-52
2022/08/12 16:26:39;;;;;;;2.45;1.00;;;;;;;;;;5012771;28;20418;-52
2022/08/12 16:29:05;;;;;;;3.05;0.82;;;;;;;;;;5012517;28;20129;-52
2022/08/12 16:31:34;;;;;;;5.05;1.20;;;;;;;;;;5012202;28;20057;-55
2022/08/12 16:34:00;;;;;;;3.60;1.10;;;;;;;;;;5012295;28;20478;-56
2022/08/12 16:36:30;;;;;;;2.28;1.00;;;;;;;;;;5013323;28;20069;-55
2022/08/12 16:38:59;;;;;;;2.70;1.00;;;;;;;;;;5016504;28;20065;-51
2022/08/12 16:41:28;;;;;;;7.68;1.33;;;;;;;;;;5016408;28;20057;-52
2022/08/12 16:43:54;;;;;;;3.30;1.30;;;;;;;;;;5016259;28;20129;-52
2022/08/12 16:46:25;;;;;;;3.50;1.45;;;;;;;;;;5012539;28;20060;-54
2022/08/12 16:48:55;;;;;;;5.20;1.58;;;;;;;;;;5016278;28;20132;-53
2022/08/12 16:51:25;;;;;;;4.35;1.33;;;;;;;;;;5016327;28;20111;-55
2022/08/12 16:56:39;;;;;;;3.10;1.50;;;;;;;;;;5016190;28;20064;-55
2022/08/12 16:59:08;;;;;;;4.32;1.48;;;;;;;;;;5016006;28;20045;-53
2022/08/12 17:01:35;;;;;;;3.42;1.20;;;;;;;;;;5015428;28;20052;-53
2022/08/12 17:04:06;;;;;;;3.10;1.85;;;;;;;;;;5015670;28;20046;-55
2022/08/12 17:06:40;;;;;;;6.22;1.48;;;;;;;;;;5015752;28;20089;-56